Temp: 22.0°C   Baro: 1020.9mb
  Wind: 0.9mph   Dir: W (268°)
  Rain: 0.0mm (0.0mm/hr)
  Solar: 76W/m2  Hum: 77%
 
Bath Spa Weather Historical Data
 
Daily Summary for July 22, 2019 Units:  Metric    English   Both
Next Day »
Daily Weekly Monthly Yearly Custom
  Current: High: Low: Average:
Temperature: 22.0 °C 24.4 °C 16.4 °C 20.2 °C
Dew Point: 17.8 °C 18.4 °C 14.2 °C 16.6 °C
Humidity: 77% 89% 68% 80%
Wind Speed: 1.4km/h 24.1km/h 0.0km/h 8.1km/h
Wind Gust: 8.0km/h 24.1km/h - -
Wind directionWest - - WSW
Pressure: 1020.5 hPa 1021.6 hPa 1019.9 hPa -
Precipitation: 0.0 mm      
Historical Graphs
 
 
Tabular Data for July 22, 2019
Time Temperature Dew Point Pressure Wind direction Wind Speed Wind Gust Humidity Rainfall Rate (Hourly) solar
00:04 16.4 °C 14.2 °C 1020.5 hPa SW 6.4 km/h 6.4 km/h 87% 0.0 mm 0.00 W/m2
00:09 16.5 °C 14.3 °C 1020.5 hPa SW 3.2 km/h 11.3 km/h 87% 0.0 mm 0.00 W/m2
00:14 16.6 °C 14.4 °C 1020.5 hPa South 6.4 km/h 8.0 km/h 87% 0.0 mm 0.00 W/m2
00:19 16.7 °C 14.5 °C 1020.5 hPa SW 6.4 km/h 11.3 km/h 87% 0.0 mm 0.00 W/m2
00:24 16.7 °C 14.5 °C 1020.5 hPa SSW 6.4 km/h 8.0 km/h 87% 0.0 mm 0.00 W/m2
00:29 16.7 °C 14.5 °C 1020.2 hPa SW 3.2 km/h 9.7 km/h 87% 0.0 mm 0.00 W/m2
00:34 16.8 °C 14.6 °C 1020.2 hPa SW 4.7 km/h 4.8 km/h 87% 0.0 mm 0.00 W/m2
00:39 16.9 °C 14.5 °C 1020.2 hPa SW 7.9 km/h 11.3 km/h 86% 0.0 mm 0.00 W/m2
00:44 17.0 °C 14.6 °C 1020.2 hPa WSW 11.1 km/h 14.5 km/h 86% 0.0 mm 0.00 W/m2
00:49 17.0 °C 14.5 °C 1020.5 hPa SW 16.1 km/h 16.1 km/h 85% 0.0 mm 0.00 W/m2
00:54 17.0 °C 14.5 °C 1020.5 hPa SW 6.4 km/h 12.9 km/h 85% 0.0 mm 0.00 W/m2
00:59 17.1 °C 14.6 °C 1020.5 hPa SW 4.7 km/h 17.7 km/h 85% 0.0 mm 0.00 W/m2
01:04 17.1 °C 14.6 °C 1020.2 hPa SSW 3.2 km/h 9.7 km/h 85% 0.0 mm 0.00 W/m2
01:09 17.0 °C 14.5 °C 1020.2 hPa WSW 1.4 km/h 9.7 km/h 85% 0.0 mm 0.00 W/m2
01:14 17.0 °C 14.5 °C 1020.5 hPa WSW 11.1 km/h 19.3 km/h 85% 0.0 mm 0.00 W/m2
01:19 17.0 °C 14.5 °C 1020.2 hPa SW 9.7 km/h 9.7 km/h 85% 0.0 mm 0.00 W/m2
01:24 17.0 °C 14.5 °C 1020.2 hPa SW 6.4 km/h 11.3 km/h 85% 0.0 mm 0.00 W/m2
01:29 17.0 °C 14.5 °C 1020.2 hPa WSW 7.9 km/h 9.7 km/h 85% 0.0 mm 0.00 W/m2
01:34 17.0 °C 14.5 °C 1020.2 hPa WSW 7.9 km/h 14.5 km/h 85% 0.0 mm 0.00 W/m2
01:39 17.0 °C 14.6 °C 1020.2 hPa WSW 7.9 km/h 12.9 km/h 86% 0.0 mm 0.00 W/m2
01:44 17.0 °C 14.6 °C 1019.9 hPa SW 6.4 km/h 16.1 km/h 86% 0.0 mm 0.00 W/m2
01:49 17.0 °C 14.6 °C 1020.2 hPa WSW 11.1 km/h 11.3 km/h 86% 0.0 mm 0.00 W/m2
01:54 17.0 °C 14.6 °C 1020.2 hPa Calm   14.5 km/h 86% 0.0 mm 0.00 W/m2
01:59 17.0 °C 14.6 °C 1019.9 hPa SSW 6.4 km/h 8.0 km/h 86% 0.0 mm 0.00 W/m2
02:04 17.0 °C 14.6 °C 1019.9 hPa SSW 4.7 km/h 11.3 km/h 86% 0.0 mm 0.00 W/m2
02:09 17.1 °C 14.7 °C 1019.9 hPa WSW 3.2 km/h 11.3 km/h 86% 0.0 mm 0.00 W/m2
02:14 17.1 °C 14.7 °C 1019.9 hPa WSW 4.7 km/h 11.3 km/h 86% 0.0 mm 0.00 W/m2
02:19 17.2 °C 14.8 °C 1019.9 hPa WSW 11.1 km/h 11.3 km/h 86% 0.0 mm 0.00 W/m2
02:24 17.2 °C 14.8 °C 1019.9 hPa Calm   11.3 km/h 86% 0.0 mm 0.00 W/m2
02:29 17.2 °C 14.8 °C 1019.9 hPa West 7.9 km/h 14.5 km/h 86% 0.0 mm 0.00 W/m2
02:34 17.2 °C 14.8 °C 1019.9 hPa SW 1.4 km/h 12.9 km/h 86% 0.0 mm 0.00 W/m2
02:39 17.2 °C 14.8 °C 1019.9 hPa SW 1.4 km/h 8.0 km/h 86% 0.0 mm 0.00 W/m2
02:44 17.2 °C 14.8 °C 1020.2 hPa SW 16.3 km/h 20.9 km/h 86% 0.0 mm 0.00 W/m2
02:49 17.2 °C 14.8 °C 1020.2 hPa WSW 9.7 km/h 20.9 km/h 86% 0.0 mm 0.00 W/m2
02:54 17.2 °C 14.8 °C 1020.2 hPa SW 1.4 km/h 12.9 km/h 86% 0.0 mm 0.00 W/m2
02:59 17.2 °C 14.8 °C 1020.2 hPa SSW 7.9 km/h 20.9 km/h 86% 0.0 mm 0.00 W/m2
03:04 17.2 °C 14.8 °C 1020.2 hPa SW 4.7 km/h 11.3 km/h 86% 0.0 mm 0.00 W/m2
03:09 17.2 °C 14.8 °C 1020.2 hPa South 3.2 km/h 14.5 km/h 86% 0.0 mm 0.00 W/m2
03:14 17.2 °C 14.8 °C 1020.2 hPa SW 4.7 km/h 16.1 km/h 86% 0.0 mm 0.00 W/m2
03:19 17.2 °C 14.8 °C 1020.2 hPa SW 11.1 km/h 17.7 km/h 86% 0.0 mm 0.00 W/m2
03:24 17.2 °C 14.8 °C 1020.2 hPa SW 6.4 km/h 12.9 km/h 86% 0.0 mm 0.00 W/m2
03:29 17.3 °C 14.9 °C 1020.2 hPa WSW 11.1 km/h 14.5 km/h 86% 0.0 mm 0.00 W/m2
03:34 17.2 °C 14.8 °C 1020.2 hPa WSW 6.4 km/h 14.5 km/h 86% 0.0 mm 0.00 W/m2
03:39 17.2 °C 14.8 °C 1020.2 hPa WSW 3.2 km/h 16.1 km/h 86% 0.0 mm 0.00 W/m2
03:44 17.3 °C 14.9 °C 1020.2 hPa SW 6.4 km/h 8.0 km/h 86% 0.0 mm 0.00 W/m2
03:49 17.3 °C 14.9 °C 1020.2 hPa West 11.1 km/h 14.5 km/h 86% 0.0 mm 0.00 W/m2
03:54 17.3 °C 14.9 °C 1020.2 hPa West 4.7 km/h 11.3 km/h 86% 0.0 mm 0.00 W/m2
03:59 17.3 °C 14.9 °C 1020.2 hPa West 1.4 km/h 6.4 km/h 86% 0.0 mm 0.00 W/m2
04:04 17.3 °C 14.9 °C 1019.9 hPa Calm   11.3 km/h 86% 0.0 mm 0.00 W/m2
04:09 17.3 °C 14.9 °C 1019.9 hPa West 7.9 km/h 11.3 km/h 86% 0.0 mm 0.00 W/m2
04:14 17.3 °C 15.1 °C 1019.9 hPa West 4.7 km/h 12.9 km/h 87% 0.0 mm 0.00 W/m2
04:19 17.3 °C 15.1 °C 1020.2 hPa West 9.7 km/h 14.5 km/h 87% 0.0 mm 0.00 W/m2
04:24 17.3 °C 15.1 °C 1019.9 hPa SW 1.4 km/h 4.8 km/h 87% 0.0 mm 0.00 W/m2
04:29 17.3 °C 15.1 °C 1020.2 hPa West 3.2 km/h 8.0 km/h 87% 0.0 mm 0.00 W/m2
04:34 17.3 °C 15.1 °C 1020.2 hPa West 9.7 km/h 11.3 km/h 87% 0.0 mm 0.00 W/m2
04:39 17.3 °C 15.1 °C 1020.2 hPa WNW 9.7 km/h 16.1 km/h 87% 0.0 mm 0.00 W/m2
04:44 17.3 °C 15.1 °C 1020.2 hPa WSW 3.2 km/h 9.7 km/h 87% 0.0 mm 0.00 W/m2
04:49 17.3 °C 15.1 °C 1020.2 hPa WSW 9.7 km/h 19.3 km/h 87% 0.0 mm 0.00 W/m2
04:54 17.2 °C 15.2 °C 1020.2 hPa WNW 6.4 km/h 12.9 km/h 88% 0.0 mm 0.00 W/m2
04:59 17.2 °C 15.2 °C 1020.2 hPa WSW 1.4 km/h 14.5 km/h 88% 0.0 mm 0.00 W/m2
05:04 17.2 °C 15.2 °C 1020.2 hPa West 1.4 km/h 8.0 km/h 88% 0.0 mm 0.00 W/m2
05:09 17.2 °C 15.2 °C 1020.2 hPa West 9.7 km/h 19.3 km/h 88% 0.0 mm 0.00 W/m2
05:14 17.2 °C 15.2 °C 1019.9 hPa SW 4.7 km/h 12.9 km/h 88% 0.0 mm 0.00 W/m2
05:19 17.2 °C 15.4 °C 1019.9 hPa Calm   19.3 km/h 89% 0.0 mm 0.00 W/m2
05:24 17.3 °C 15.5 °C 1019.9 hPa West 6.4 km/h 20.9 km/h 89% 0.0 mm 0.00 W/m2
05:29 17.3 °C 15.5 °C 1019.9 hPa SSW 11.1 km/h 19.3 km/h 89% 0.0 mm 5.00 W/m2
05:34 17.3 °C 15.5 °C 1020.2 hPa SW 14.3 km/h 16.1 km/h 89% 0.0 mm 7.00 W/m2
05:39 17.3 °C 15.5 °C 1020.2 hPa SW 17.7 km/h 17.7 km/h 89% 0.0 mm 7.00 W/m2
05:44 17.4 °C 15.6 °C 1020.2 hPa SW 13.0 km/h 12.9 km/h 89% 0.0 mm 7.00 W/m2
05:49 17.4 °C 15.6 °C 1020.2 hPa SW 9.7 km/h 20.9 km/h 89% 0.0 mm 9.00 W/m2
05:54 17.4 °C 15.6 °C 1020.2 hPa SW 14.3 km/h 24.1 km/h 89% 0.0 mm 11.00 W/m2
05:59 17.4 °C 15.6 °C 1020.5 hPa SW 6.4 km/h 17.7 km/h 89% 0.0 mm 11.00 W/m2
06:04 17.4 °C 15.6 °C 1020.5 hPa SW 1.4 km/h 11.3 km/h 89% 0.0 mm 14.00 W/m2
06:09 17.5 °C 15.7 °C 1020.5 hPa WSW 11.1 km/h 14.5 km/h 89% 0.0 mm 18.00 W/m2
06:14 17.5 °C 15.7 °C 1020.5 hPa WSW 9.7 km/h 16.1 km/h 89% 0.0 mm 16.00 W/m2
06:19 17.5 °C 15.7 °C 1020.5 hPa SW 7.9 km/h 16.1 km/h 89% 0.0 mm 21.00 W/m2
06:24 17.5 °C 15.7 °C 1020.5 hPa SW 7.9 km/h 12.9 km/h 89% 0.0 mm 25.00 W/m2
06:29 17.6 °C 15.8 °C 1020.5 hPa SW 7.9 km/h 20.9 km/h 89% 0.0 mm 28.00 W/m2
06:34 17.7 °C 15.9 °C 1020.5 hPa WSW 9.7 km/h 16.1 km/h 89% 0.0 mm 30.00 W/m2
06:39 17.8 °C 16.0 °C 1020.5 hPa WSW 11.1 km/h 14.5 km/h 89% 0.0 mm 25.00 W/m2
06:44 17.8 °C 16.0 °C 1020.5 hPa SW 3.2 km/h 11.3 km/h 89% 0.0 mm 25.00 W/m2
06:49 17.8 °C 16.0 °C 1020.5 hPa SW 1.4 km/h 8.0 km/h 89% 0.0 mm 25.00 W/m2
06:54 17.8 °C 16.0 °C 1020.5 hPa SW 3.2 km/h 9.7 km/h 89% 0.0 mm 25.00 W/m2
06:59 17.9 °C 16.1 °C 1020.5 hPa SW 3.2 km/h 6.4 km/h 89% 0.0 mm 32.00 W/m2
07:04 17.9 °C 16.1 °C 1020.9 hPa WSW 1.4 km/h 6.4 km/h 89% 0.0 mm 35.00 W/m2
07:09 17.9 °C 16.1 °C 1020.9 hPa Calm   3.2 km/h 89% 0.0 mm 33.00 W/m2
07:14 17.9 °C 16.1 °C 1020.9 hPa WSW 4.7 km/h 11.3 km/h 89% 0.0 mm 37.00 W/m2
07:19 18.0 °C 16.2 °C 1020.9 hPa WSW 4.7 km/h 6.4 km/h 89% 0.0 mm 40.00 W/m2
07:24 18.0 °C 16.2 °C 1020.5 hPa SW 6.4 km/h 6.4 km/h 89% 0.0 mm 46.00 W/m2
07:29 18.0 °C 16.2 °C 1020.9 hPa SSW 3.2 km/h 17.7 km/h 89% 0.0 mm 49.00 W/m2
07:34 18.1 °C 16.1 °C 1020.9 hPa SW 3.2 km/h 9.7 km/h 88% 0.0 mm 67.00 W/m2
07:39 18.2 °C 16.2 °C 1020.9 hPa SW 24.1 km/h 24.1 km/h 88% 0.0 mm 70.00 W/m2
07:44 18.3 °C 16.3 °C 1020.9 hPa WSW 11.1 km/h 17.7 km/h 88% 0.0 mm 76.00 W/m2
07:49 18.4 °C 16.2 °C 1020.9 hPa SW 6.4 km/h 14.5 km/h 87% 0.0 mm 81.00 W/m2
07:54 18.5 °C 16.3 °C 1020.9 hPa SW 14.3 km/h 17.7 km/h 87% 0.0 mm 83.00 W/m2
07:59 18.5 °C 16.3 °C 1020.9 hPa SW 1.4 km/h 16.1 km/h 87% 0.0 mm 88.00 W/m2
08:04 18.7 °C 16.5 °C 1020.9 hPa SW 3.2 km/h 14.5 km/h 87% 0.0 mm 91.00 W/m2
08:09 18.8 °C 16.6 °C 1021.2 hPa SSW 6.4 km/h 11.3 km/h 87% 0.0 mm 84.00 W/m2
08:14 18.8 °C 16.4 °C 1021.2 hPa SW 20.9 km/h 20.9 km/h 86% 0.0 mm 102.00 W/m2
08:19 18.9 °C 16.5 °C 1021.2 hPa SSW 4.7 km/h 11.3 km/h 86% 0.0 mm 128.00 W/m2
08:24 19.0 °C 16.6 °C 1021.2 hPa SW 6.4 km/h 14.5 km/h 86% 0.0 mm 132.00 W/m2
08:29 19.0 °C 16.6 °C 1021.2 hPa SW 7.9 km/h 8.0 km/h 86% 0.0 mm 135.00 W/m2
08:34 19.1 °C 16.7 °C 1021.2 hPa SW 7.9 km/h 11.3 km/h 86% 0.0 mm 137.00 W/m2
08:39 19.2 °C 16.6 °C 1021.2 hPa SW 6.4 km/h 9.7 km/h 85% 0.0 mm 146.00 W/m2
08:44 19.3 °C 16.7 °C 1021.2 hPa SW 6.4 km/h 8.0 km/h 85% 0.0 mm 141.00 W/m2
08:49 19.3 °C 16.7 °C 1021.2 hPa SW 4.7 km/h 9.7 km/h 85% 0.0 mm 149.00 W/m2
08:54 19.3 °C 16.7 °C 1021.2 hPa SW 1.4 km/h 14.5 km/h 85% 0.0 mm 160.00 W/m2
08:59 19.4 °C 16.8 °C 1021.2 hPa South 7.9 km/h 11.3 km/h 85% 0.0 mm 169.00 W/m2
09:04 19.5 °C 16.7 °C 1021.2 hPa WSW 11.1 km/h 12.9 km/h 84% 0.0 mm 204.00 W/m2
09:09 19.6 °C 16.8 °C 1021.2 hPa SW 9.7 km/h 12.9 km/h 84% 0.0 mm 223.00 W/m2
09:14 19.8 °C 17.0 °C 1021.2 hPa SW 6.4 km/h 14.5 km/h 84% 0.0 mm 230.00 W/m2
09:19 19.9 °C 16.9 °C 1021.2 hPa WSW 14.3 km/h 19.3 km/h 83% 0.0 mm 209.00 W/m2
09:24 19.9 °C 16.9 °C 1021.2 hPa SSW 6.4 km/h 16.1 km/h 83% 0.0 mm 206.00 W/m2
09:29 20.1 °C 16.9 °C 1021.2 hPa SW 14.3 km/h 16.1 km/h 82% 0.0 mm 193.00 W/m2
09:34 20.2 °C 17.0 °C 1021.2 hPa WSW 6.4 km/h 12.9 km/h 82% 0.0 mm 193.00 W/m2
09:39 20.3 °C 17.1 °C 1021.2 hPa WSW 16.3 km/h 16.1 km/h 82% 0.0 mm 181.00 W/m2
09:44 20.3 °C 16.9 °C 1021.2 hPa SW 4.7 km/h 12.9 km/h 81% 0.0 mm 186.00 W/m2
09:49 20.4 °C 17.0 °C 1021.2 hPa SW 7.9 km/h 16.1 km/h 81% 0.0 mm 171.00 W/m2
09:54 20.4 °C 17.0 °C 1021.2 hPa WSW 14.3 km/h 16.1 km/h 81% 0.0 mm 193.00 W/m2
09:59 20.4 °C 17.0 °C 1021.2 hPa SW 7.9 km/h 14.5 km/h 81% 0.0 mm 246.00 W/m2
10:04 20.6 °C 17.2 °C 1021.2 hPa WSW 6.4 km/h 12.9 km/h 81% 0.0 mm 251.00 W/m2
10:09 20.7 °C 17.1 °C 1021.2 hPa SW 11.1 km/h 14.5 km/h 80% 0.0 mm 279.00 W/m2
10:14 20.9 °C 17.3 °C 1021.2 hPa SW 6.4 km/h 14.5 km/h 80% 0.0 mm 301.00 W/m2
10:19 21.1 °C 17.5 °C 1021.2 hPa WSW 6.4 km/h 16.1 km/h 80% 0.0 mm 355.00 W/m2
10:24 21.3 °C 17.5 °C 1021.2 hPa West 7.9 km/h 14.5 km/h 79% 0.0 mm 330.00 W/m2
10:29 21.5 °C 17.5 °C 1021.2 hPa West 6.4 km/h 12.9 km/h 78% 0.0 mm 288.00 W/m2
10:34 21.3 °C 17.1 °C 1021.2 hPa WSW 13.0 km/h 17.7 km/h 77% 0.0 mm 262.00 W/m2
10:39 21.4 °C 17.4 °C 1021.2 hPa WSW 9.7 km/h 12.9 km/h 78% 0.0 mm 264.00 W/m2
10:44 21.4 °C 17.2 °C 1021.2 hPa SW 17.7 km/h 19.3 km/h 77% 0.0 mm 332.00 W/m2
10:49 21.5 °C 17.3 °C 1021.2 hPa West 24.1 km/h 24.1 km/h 77% 0.0 mm 334.00 W/m2
10:54 21.8 °C 17.6 °C 1021.2 hPa WNW 9.7 km/h 16.1 km/h 77% 0.0 mm 452.00 W/m2
10:59 21.8 °C 17.4 °C 1021.2 hPa WNW 11.1 km/h 19.3 km/h 76% 0.0 mm 279.00 W/m2
11:04 21.7 °C 17.1 °C 1021.6 hPa SW 13.0 km/h 22.5 km/h 75% 0.0 mm 336.00 W/m2
11:09 21.8 °C 17.4 °C 1021.6 hPa SW 11.1 km/h 17.7 km/h 76% 0.0 mm 330.00 W/m2
11:14 21.8 °C 17.4 °C 1021.6 hPa West 13.0 km/h 16.1 km/h 76% 0.0 mm 253.00 W/m2
11:19 22.0 °C 17.4 °C 1021.6 hPa West 6.4 km/h 16.1 km/h 75% 0.0 mm 272.00 W/m2
11:24 21.9 °C 17.3 °C 1021.6 hPa SSW 11.1 km/h 17.7 km/h 75% 0.0 mm 367.00 W/m2
11:29 22.1 °C 17.5 °C 1021.6 hPa West 11.1 km/h 16.1 km/h 75% 0.0 mm 432.00 W/m2
11:34 22.3 °C 17.4 °C 1021.6 hPa West 7.9 km/h 14.5 km/h 74% 0.0 mm 288.00 W/m2
11:39 22.3 °C 17.4 °C 1021.6 hPa WSW 13.0 km/h 20.9 km/h 74% 0.0 mm 485.00 W/m2
11:44 22.3 °C 17.4 °C 1021.6 hPa WNW 14.3 km/h 17.7 km/h 74% 0.0 mm 401.00 W/m2
11:49 22.4 °C 17.5 °C 1021.6 hPa WNW 6.4 km/h 16.1 km/h 74% 0.0 mm 325.00 W/m2
11:54 22.4 °C 17.5 °C 1021.6 hPa West 11.1 km/h 14.5 km/h 74% 0.0 mm 223.00 W/m2
11:59 22.3 °C 17.7 °C 1021.6 hPa West 6.4 km/h 14.5 km/h 75% 0.0 mm 192.00 W/m2
12:04 22.5 °C 17.6 °C 1021.6 hPa West 13.0 km/h 17.7 km/h 74% 0.0 mm 257.00 W/m2
12:09 22.5 °C 17.6 °C 1021.6 hPa SW 9.7 km/h 17.7 km/h 74% 0.0 mm 388.00 W/m2
12:14 22.5 °C 17.4 °C 1021.6 hPa WSW 9.7 km/h 22.5 km/h 73% 0.0 mm 338.00 W/m2
12:19 22.7 °C 17.8 °C 1021.6 hPa WNW 6.4 km/h 16.1 km/h 74% 0.0 mm 367.00 W/m2
12:24 22.7 °C 17.8 °C 1021.6 hPa WSW 14.3 km/h 14.5 km/h 74% 0.0 mm 392.00 W/m2
12:29 22.8 °C 17.9 °C 1021.6 hPa WNW 7.9 km/h 16.1 km/h 74% 0.0 mm 404.00 W/m2
12:34 22.7 °C 18.0 °C 1021.6 hPa West 4.7 km/h 19.3 km/h 75% 0.0 mm 244.00 W/m2
12:39 22.4 °C 17.7 °C 1021.6 hPa NW 9.7 km/h 17.7 km/h 75% 0.0 mm 274.00 W/m2
12:44 22.4 °C 18.0 °C 1021.6 hPa WSW 3.2 km/h 12.9 km/h 76% 0.0 mm 459.00 W/m2
12:49 22.7 °C 18.0 °C 1021.6 hPa WNW 4.7 km/h 16.1 km/h 75% 0.0 mm 388.00 W/m2
12:54 22.7 °C 17.6 °C 1021.6 hPa SW 13.0 km/h 14.5 km/h 73% 0.0 mm 348.00 W/m2
12:59 22.8 °C 17.7 °C 1021.6 hPa SW 3.2 km/h 12.9 km/h 73% 0.0 mm 387.00 W/m2
13:04 22.8 °C 17.7 °C 1021.6 hPa WSW 17.7 km/h 17.7 km/h 73% 0.0 mm 338.00 W/m2
13:09 22.7 °C 17.4 °C 1021.6 hPa West 14.3 km/h 16.1 km/h 72% 0.0 mm 364.00 W/m2
13:14 22.9 °C 17.6 °C 1021.6 hPa WNW 7.9 km/h 12.9 km/h 72% 0.0 mm 299.00 W/m2
13:19 22.8 °C 17.3 °C 1021.6 hPa West 7.9 km/h 22.5 km/h 71% 0.0 mm 394.00 W/m2
13:24 23.0 °C 17.7 °C 1021.6 hPa West 7.9 km/h 9.7 km/h 72% 0.0 mm 394.00 W/m2
13:29 23.2 °C 17.9 °C 1021.6 hPa WNW 7.9 km/h 12.9 km/h 72% 0.0 mm 408.00 W/m2
13:34 23.3 °C 17.7 °C 1021.6 hPa West 16.3 km/h 17.7 km/h 71% 0.0 mm 341.00 W/m2
13:39 23.0 °C 17.5 °C 1021.6 hPa WSW 13.0 km/h 12.9 km/h 71% 0.0 mm 302.00 W/m2
13:44 23.0 °C 17.5 °C 1021.6 hPa SW 16.3 km/h 16.1 km/h 71% 0.0 mm 329.00 W/m2
13:49 23.2 °C 17.6 °C 1021.2 hPa WSW 9.7 km/h 16.1 km/h 71% 0.0 mm 367.00 W/m2
13:54 23.2 °C 17.6 °C 1021.2 hPa SW 7.9 km/h 14.5 km/h 71% 0.0 mm 364.00 W/m2
13:59 23.2 °C 17.6 °C 1021.2 hPa WSW 7.9 km/h 14.5 km/h 71% 0.0 mm 425.00 W/m2
14:04 23.5 °C 17.9 °C 1021.2 hPa WSW 7.9 km/h 9.7 km/h 71% 0.0 mm 294.00 W/m2
14:09 23.5 °C 17.7 °C 1021.2 hPa WNW 7.9 km/h 14.5 km/h 70% 0.0 mm 343.00 W/m2
14:14 23.5 °C 17.7 °C 1021.2 hPa NW 4.7 km/h 16.1 km/h 70% 0.0 mm 348.00 W/m2
14:19 23.6 °C 17.6 °C 1021.2 hPa WSW 7.9 km/h 14.5 km/h 69% 0.0 mm 353.00 W/m2
14:24 23.8 °C 18.0 °C 1021.2 hPa WSW 11.1 km/h 11.3 km/h 70% 0.0 mm 325.00 W/m2
14:29 23.6 °C 17.6 °C 1021.2 hPa SW 7.9 km/h 12.9 km/h 69% 0.0 mm 378.00 W/m2
14:34 23.7 °C 17.9 °C 1021.2 hPa WSW 9.7 km/h 12.9 km/h 70% 0.0 mm 338.00 W/m2
14:39 23.6 °C 17.6 °C 1021.2 hPa WSW 14.3 km/h 19.3 km/h 69% 0.0 mm 367.00 W/m2
14:44 23.6 °C 17.6 °C 1021.2 hPa WSW 9.7 km/h 16.1 km/h 69% 0.0 mm 373.00 W/m2
14:49 23.7 °C 17.9 °C 1021.2 hPa SSW 7.9 km/h 11.3 km/h 70% 0.0 mm 459.00 W/m2
14:54 23.9 °C 18.1 °C 1021.2 hPa WSW 4.7 km/h 14.5 km/h 70% 0.0 mm 362.00 W/m2
14:59 23.7 °C 17.9 °C 1021.2 hPa WSW 3.2 km/h 9.7 km/h 70% 0.0 mm 257.00 W/m2
15:04 23.7 °C 17.7 °C 1021.2 hPa WSW 11.1 km/h 14.5 km/h 69% 0.0 mm 192.00 W/m2
15:09 23.4 °C 17.8 °C 1021.2 hPa West 14.3 km/h 16.1 km/h 71% 0.0 mm 262.00 W/m2
15:14 23.4 °C 18.1 °C 1021.2 hPa WSW 11.1 km/h 16.1 km/h 72% 0.0 mm 323.00 W/m2
15:19 23.5 °C 18.4 °C 1021.2 hPa West 3.2 km/h 14.5 km/h 73% 0.0 mm 489.00 W/m2
15:24 23.6 °C 18.0 °C 1021.2 hPa WSW 9.7 km/h 17.7 km/h 71% 0.0 mm 504.00 W/m2
15:29 23.9 °C 18.1 °C 1021.2 hPa WSW 11.1 km/h 16.1 km/h 70% 0.0 mm 612.00 W/m2
15:34 24.0 °C 18.0 °C 1020.9 hPa SSW 11.1 km/h 14.5 km/h 69% 0.0 mm 868.00 W/m2
15:39 23.9 °C 17.9 °C 1021.2 hPa SSW 3.2 km/h 14.5 km/h 69% 0.0 mm 429.00 W/m2
15:44 23.9 °C 17.9 °C 1021.2 hPa SW 11.1 km/h 20.9 km/h 69% 0.0 mm 311.00 W/m2
15:49 23.9 °C 18.3 °C 1021.2 hPa West 6.4 km/h 9.7 km/h 71% 0.0 mm 315.00 W/m2
15:54 24.0 °C 18.2 °C 1021.2 hPa SW 19.3 km/h 19.3 km/h 70% 0.0 mm 469.00 W/m2
15:59 23.5 °C 17.9 °C 1021.2 hPa SW 20.9 km/h 20.9 km/h 71% 0.0 mm 323.00 W/m2
16:04 23.4 °C 17.8 °C 1021.2 hPa SW 13.0 km/h 16.1 km/h 71% 0.0 mm 315.00 W/m2
16:09 23.3 °C 18.0 °C 1020.9 hPa WSW 14.3 km/h 17.7 km/h 72% 0.0 mm 394.00 W/m2
16:14 23.6 °C 17.8 °C 1020.9 hPa WSW 16.3 km/h 20.9 km/h 70% 0.0 mm 265.00 W/m2
16:19 23.5 °C 17.9 °C 1020.9 hPa West 4.7 km/h 17.7 km/h 71% 0.0 mm 311.00 W/m2
16:24 23.8 °C 18.0 °C 1020.9 hPa SSW 14.3 km/h 19.3 km/h 70% 0.0 mm 698.00 W/m2
16:29 23.7 °C 17.9 °C 1020.9 hPa SW 1.4 km/h 11.3 km/h 70% 0.0 mm 329.00 W/m2
16:34 23.9 °C 18.1 °C 1020.5 hPa West 6.4 km/h 12.9 km/h 70% 0.0 mm 327.00 W/m2
16:39 24.0 °C 18.0 °C 1020.9 hPa West 3.2 km/h 17.7 km/h 69% 0.0 mm 826.00 W/m2
16:44 24.4 °C 18.1 °C 1020.9 hPa WNW 16.3 km/h 20.9 km/h 68% 0.0 mm 318.00 W/m2
16:49 23.9 °C 18.1 °C 1020.9 hPa WSW 13.0 km/h 12.9 km/h 70% 0.0 mm 348.00 W/m2
16:54 24.0 °C 18.0 °C 1020.9 hPa WSW 16.3 km/h 20.9 km/h 69% 0.0 mm 288.00 W/m2
16:59 23.9 °C 17.9 °C 1020.9 hPa West 7.9 km/h 16.1 km/h 69% 0.0 mm 239.00 W/m2
17:04 23.8 °C 17.8 °C 1020.9 hPa West 7.9 km/h 11.3 km/h 69% 0.0 mm 153.00 W/m2
17:09 23.7 °C 17.9 °C 1020.9 hPa WNW 17.7 km/h 19.3 km/h 70% 0.0 mm 81.00 W/m2
17:14 23.3 °C 17.7 °C 1020.9 hPa WNW 9.7 km/h 16.1 km/h 71% 0.0 mm 77.00 W/m2
17:19 23.0 °C 17.9 °C 1020.9 hPa WSW 16.3 km/h 17.7 km/h 73% 0.0 mm 100.00 W/m2
17:24 22.9 °C 17.8 °C 1020.9 hPa WSW 14.3 km/h 19.3 km/h 73% 0.0 mm 104.00 W/m2
17:29 22.9 °C 17.8 °C 1020.9 hPa SW 9.7 km/h 12.9 km/h 73% 0.0 mm 105.00 W/m2
17:34 22.8 °C 17.7 °C 1020.9 hPa SW 3.2 km/h 19.3 km/h 73% 0.0 mm 123.00 W/m2
17:39 22.8 °C 17.9 °C 1020.9 hPa WSW 11.1 km/h 11.3 km/h 74% 0.0 mm 156.00 W/m2
17:44 22.7 °C 17.8 °C 1020.9 hPa SW 14.3 km/h 16.1 km/h 74% 0.0 mm 149.00 W/m2
17:49 22.7 °C 17.8 °C 1020.9 hPa SW 11.1 km/h 12.9 km/h 74% 0.0 mm 123.00 W/m2
17:54 22.8 °C 17.9 °C 1020.9 hPa West 4.7 km/h 12.9 km/h 74% 0.0 mm 107.00 W/m2
17:59 22.7 °C 17.8 °C 1020.9 hPa SSW 9.7 km/h 12.9 km/h 74% 0.0 mm 90.00 W/m2
18:04 22.5 °C 17.6 °C 1020.9 hPa WSW 3.2 km/h 16.1 km/h 74% 0.0 mm 72.00 W/m2
18:09 22.5 °C 17.6 °C 1020.9 hPa WSW 6.4 km/h 16.1 km/h 74% 0.0 mm 60.00 W/m2
18:14 22.5 °C 17.6 °C 1020.9 hPa SW 3.2 km/h 11.3 km/h 74% 0.0 mm 67.00 W/m2
18:19 22.4 °C 17.5 °C 1020.9 hPa WSW 9.7 km/h 12.9 km/h 74% 0.0 mm 69.00 W/m2
18:24 22.4 °C 17.5 °C 1020.9 hPa West 6.4 km/h 9.7 km/h 74% 0.0 mm 62.00 W/m2
18:29 22.4 °C 17.7 °C 1020.5 hPa West 7.9 km/h 14.5 km/h 75% 0.0 mm 56.00 W/m2
18:34 22.3 °C 17.7 °C 1020.5 hPa Calm   11.3 km/h 75% 0.0 mm 47.00 W/m2
18:39 22.3 °C 17.7 °C 1020.9 hPa West 4.7 km/h 9.7 km/h 75% 0.0 mm 49.00 W/m2
18:44 22.2 °C 17.8 °C 1020.5 hPa WSW 1.4 km/h 9.7 km/h 76% 0.0 mm 54.00 W/m2
18:49 22.2 °C 17.8 °C 1020.9 hPa Calm   4.8 km/h 76% 0.0 mm 63.00 W/m2
18:54 22.2 °C 17.8 °C 1020.9 hPa West 6.4 km/h 9.7 km/h 76% 0.0 mm 70.00 W/m2
18:59 22.1 °C 17.9 °C 1020.5 hPa WSW 1.4 km/h 9.7 km/h 77% 0.0 mm 81.00 W/m2
19:04 22.2 °C 18.0 °C 1020.5 hPa Calm   8.0 km/h 77% 0.0 mm 83.00 W/m2
19:09 22.2 °C 18.0 °C 1020.5 hPa West 6.4 km/h 6.4 km/h 77% 0.0 mm 81.00 W/m2
19:14 22.2 °C 18.0 °C 1020.5 hPa West 3.2 km/h 6.4 km/h 77% 0.0 mm 86.00 W/m2
19:19 22.0 °C 17.8 °C 1020.5 hPa West 3.2 km/h 4.8 km/h 77% 0.0 mm 88.00 W/m2
19:24 22.0 °C 17.8 °C 1020.5 hPa West 1.4 km/h 8.0 km/h 77% 0.0 mm 81.00 W/m2